sensor_id;sensor_type;location;lat;lon;timestamp;P1;durP1;ratioP1;P2;durP2;ratioP2
47894;SDS011;33653;52.302;8.134;2023-12-20T00:01:00;6.68;;;2.17;;
47894;SDS011;33653;52.302;8.134;2023-12-20T00:03:29;6.38;;;3.00;;
47894;SDS011;33653;52.302;8.134;2023-12-20T00:09:06;2.05;;;1.85;;
47894;SDS011;33653;52.302;8.134;2023-12-20T00:11:37;3.33;;;2.25;;
47894;SDS011;33653;52.302;8.134;2023-12-20T00:14:09;3.90;;;1.98;;
47894;SDS011;33653;52.302;8.134;2023-12-20T00:16:37;4.25;;;2.08;;
47894;SDS011;33653;52.302;8.134;2023-12-20T00:19:17;3.43;;;1.90;;
47894;SDS011;33653;52.302;8.134;2023-12-20T00:27:46;4.80;;;1.77;;
47894;SDS011;33653;52.302;8.134;2023-12-20T00:33:12;2.78;;;1.70;;
47894;SDS011;33653;52.302;8.134;2023-12-20T00:35:41;5.78;;;1.42;;
47894;SDS011;33653;52.302;8.134;2023-12-20T00:38:15;6.47;;;1.73;;
47894;SDS011;33653;52.302;8.134;2023-12-20T00:40:53;5.80;;;1.95;;
47894;SDS011;33653;52.302;8.134;2023-12-20T00:47:45;5.40;;;2.10;;
47894;SDS011;33653;52.302;8.134;2023-12-20T00:50:27;1.83;;;1.30;;
47894;SDS011;33653;52.302;8.134;2023-12-20T00:52:56;8.30;;;1.80;;
47894;SDS011;33653;52.302;8.134;2023-12-20T00:55:25;6.22;;;1.67;;
47894;SDS011;33653;52.302;8.134;2023-12-20T00:57:53;2.92;;;1.75;;
47894;SDS011;33653;52.302;8.134;2023-12-20T01:00:23;7.15;;;2.35;;
47894;SDS011;33653;52.302;8.134;2023-12-20T01:02:52;3.25;;;1.45;;
47894;SDS011;33653;52.302;8.134;2023-12-20T01:05:20;7.53;;;2.00;;
47894;SDS011;33653;52.302;8.134;2023-12-20T01:07:54;5.95;;;2.30;;
47894;SDS011;33653;52.302;8.134;2023-12-20T01:10:33;1.80;;;1.65;;
47894;SDS011;33653;52.302;8.134;2023-12-20T01:13:01;6.47;;;1.70;;
47894;SDS011;33653;52.302;8.134;2023-12-20T01:15:35;3.33;;;2.00;;
47894;SDS011;33653;52.302;8.134;2023-12-20T01:18:13;3.13;;;2.08;;
47894;SDS011;33653;52.302;8.134;2023-12-20T01:21:01;8.85;;;1.85;;
47894;SDS011;33653;52.302;8.134;2023-12-20T01:26:44;3.38;;;2.00;;
47894;SDS011;33653;52.302;8.134;2023-12-20T01:29:13;1.98;;;1.55;;
47894;SDS011;33653;52.302;8.134;2023-12-20T01:31:41;9.57;;;2.30;;
47894;SDS011;33653;52.302;8.134;2023-12-20T01:34:13;3.28;;;2.08;;
47894;SDS011;33653;52.302;8.134;2023-12-20T01:36:41;2.65;;;2.45;;
47894;SDS011;33653;52.302;8.134;2023-12-20T01:42:15;6.18;;;2.03;;
47894;SDS011;33653;52.302;8.134;2023-12-20T01:44:43;6.13;;;2.55;;
47894;SDS011;33653;52.302;8.134;2023-12-20T01:47:15;9.50;;;2.40;;
47894;SDS011;33653;52.302;8.134;2023-12-20T01:49:49;1.60;;;1.50;;
47894;SDS011;33653;52.302;8.134;2023-12-20T01:52:21;3.03;;;2.20;;
47894;SDS011;33653;52.302;8.134;2023-12-20T01:55:00;5.07;;;2.60;;
47894;SDS011;33653;52.302;8.134;2023-12-20T02:00:29;8.25;;;2.42;;
47894;SDS011;33653;52.302;8.134;2023-12-20T02:05:55;5.50;;;2.92;;
47894;SDS011;33653;52.302;8.134;2023-12-20T02:08:29;4.72;;;2.88;;
47894;SDS011;33653;52.302;8.134;2023-12-20T02:10:57;3.75;;;2.35;;
47894;SDS011;33653;52.302;8.134;2023-12-20T02:13:26;3.63;;;2.30;;
47894;SDS011;33653;52.302;8.134;2023-12-20T02:15:57;4.38;;;2.40;;
47894;SDS011;33653;52.302;8.134;2023-12-20T02:18:26;2.15;;;1.73;;
47894;SDS011;33653;52.302;8.134;2023-12-20T02:21:00;2.33;;;2.00;;
47894;SDS011;33653;52.302;8.134;2023-12-20T02:23:32;11.30;;;2.38;;
47894;SDS011;33653;52.302;8.134;2023-12-20T02:26:06;9.30;;;2.17;;
47894;SDS011;33653;52.302;8.134;2023-12-20T02:31:12;4.88;;;2.00;;
47894;SDS011;33653;52.302;8.134;2023-12-20T02:33:40;2.60;;;1.98;;
47894;SDS011;33653;52.302;8.134;2023-12-20T02:36:14;2.95;;;1.83;;
47894;SDS011;33653;52.302;8.134;2023-12-20T02:38:46;6.10;;;2.35;;
47894;SDS011;33653;52.302;8.134;2023-12-20T02:41:46;4.90;;;1.88;;
47894;SDS011;33653;52.302;8.134;2023-12-20T02:44:25;10.85;;;2.60;;
47894;SDS011;33653;52.302;8.134;2023-12-20T02:46:56;1.80;;;1.60;;
47894;SDS011;33653;52.302;8.134;2023-12-20T02:49:24;7.55;;;2.58;;
47894;SDS011;33653;52.302;8.134;2023-12-20T02:51:53;3.30;;;2.35;;
47894;SDS011;33653;52.302;8.134;2023-12-20T02:56:52;5.13;;;2.13;;
47894;SDS011;33653;52.302;8.134;2023-12-20T02:59:20;6.18;;;2.13;;
47894;SDS011;33653;52.302;8.134;2023-12-20T03:02:10;2.70;;;2.08;;
47894;SDS011;33653;52.302;8.134;2023-12-20T03:04:45;2.70;;;2.25;;
47894;SDS011;33653;52.302;8.134;2023-12-20T03:07:14;3.83;;;2.22;;
47894;SDS011;33653;52.302;8.134;2023-12-20T03:12:59;5.55;;;2.50;;
47894;SDS011;33653;52.302;8.134;2023-12-20T03:15:29;1.98;;;1.75;;
47894;SDS011;33653;52.302;8.134;2023-12-20T03:17:57;3.80;;;2.55;;
47894;SDS011;33653;52.302;8.134;2023-12-20T03:20:41;10.65;;;2.67;;
47894;SDS011;33653;52.302;8.134;2023-12-20T03:23:16;5.03;;;2.75;;
47894;SDS011;33653;52.302;8.134;2023-12-20T03:25:44;3.67;;;2.10;;
47894;SDS011;33653;52.302;8.134;2023-12-20T03:28:18;9.02;;;2.30;;
47894;SDS011;33653;52.302;8.134;2023-12-20T03:33:54;9.35;;;2.70;;
47894;SDS011;33653;52.302;8.134;2023-12-20T03:39:01;5.45;;;2.45;;
47894;SDS011;33653;52.302;8.134;2023-12-20T03:41:30;12.60;;;2.80;;
47894;SDS011;33653;52.302;8.134;2023-12-20T03:47:01;3.72;;;1.45;;
47894;SDS011;33653;52.302;8.134;2023-12-20T03:49:29;4.75;;;2.60;;
47894;SDS011;33653;52.302;8.134;2023-12-20T03:54:34;2.67;;;1.80;;
47894;SDS011;33653;52.302;8.134;2023-12-20T03:57:03;8.57;;;2.55;;
47894;SDS011;33653;52.302;8.134;2023-12-20T03:59:34;3.33;;;2.28;;
47894;SDS011;33653;52.302;8.134;2023-12-20T04:08:15;4.63;;;2.35;;
47894;SDS011;33653;52.302;8.134;2023-12-20T04:10:46;9.50;;;2.40;;
47894;SDS011;33653;52.302;8.134;2023-12-20T04:13:18;10.05;;;2.78;;
47894;SDS011;33653;52.302;8.134;2023-12-20T04:16:03;12.82;;;2.70;;
47894;SDS011;33653;52.302;8.134;2023-12-20T04:18:37;7.20;;;2.20;;
47894;SDS011;33653;52.302;8.134;2023-12-20T04:21:08;8.07;;;2.70;;
47894;SDS011;33653;52.302;8.134;2023-12-20T04:23:37;11.77;;;2.78;;
47894;SDS011;33653;52.302;8.134;2023-12-20T04:26:05;10.07;;;2.78;;
47894;SDS011;33653;52.302;8.134;2023-12-20T04:34:23;11.25;;;3.65;;
47894;SDS011;33653;52.302;8.134;2023-12-20T04:36:52;17.60;;;3.45;;
47894;SDS011;33653;52.302;8.134;2023-12-20T04:39:21;3.58;;;2.53;;
47894;SDS011;33653;52.302;8.134;2023-12-20T04:41:55;13.85;;;2.67;;
47894;SDS011;33653;52.302;8.134;2023-12-20T04:44:26;6.35;;;1.92;;
47894;SDS011;33653;52.302;8.134;2023-12-20T04:46:54;6.88;;;2.35;;
47894;SDS011;33653;52.302;8.134;2023-12-20T04:49:23;5.60;;;2.17;;
47894;SDS011;33653;52.302;8.134;2023-12-20T04:52:01;10.35;;;2.08;;
47894;SDS011;33653;52.302;8.134;2023-12-20T04:54:29;8.25;;;2.45;;
47894;SDS011;33653;52.302;8.134;2023-12-20T04:57:29;3.92;;;1.95;;
47894;SDS011;33653;52.302;8.134;2023-12-20T04:59:57;3.20;;;1.70;;
47894;SDS011;33653;52.302;8.134;2023-12-20T05:02:37;9.43;;;1.73;;
47894;SDS011;33653;52.302;8.134;2023-12-20T05:05:07;10.00;;;2.55;;
47894;SDS011;33653;52.302;8.134;2023-12-20T05:07:35;1.42;;;1.33;;
47894;SDS011;33653;52.302;8.134;2023-12-20T05:10:05;10.77;;;2.40;;
47894;SDS011;33653;52.302;8.134;2023-12-20T05:15:09;1.60;;;1.50;;
47894;SDS011;33653;52.302;8.134;2023-12-20T05:17:43;2.83;;;2.03;;
47894;SDS011;33653;52.302;8.134;2023-12-20T05:20:18;5.80;;;2.38;;
47894;SDS011;33653;52.302;8.134;2023-12-20T05:22:46;5.20;;;2.28;;
47894;SDS011;33653;52.302;8.134;2023-12-20T05:25:20;6.07;;;2.03;;
47894;SDS011;33653;52.302;8.134;2023-12-20T05:28:07;10.90;;;2.88;;
47894;SDS011;33653;52.302;8.134;2023-12-20T05:30:35;5.63;;;2.50;;
47894;SDS011;33653;52.302;8.134;2023-12-20T05:33:04;7.40;;;2.17;;
47894;SDS011;33653;52.302;8.134;2023-12-20T05:35:38;3.53;;;2.03;;
47894;SDS011;33653;52.302;8.134;2023-12-20T05:38:09;11.45;;;2.63;;
47894;SDS011;33653;52.302;8.134;2023-12-20T05:40:43;10.32;;;2.13;;
47894;SDS011;33653;52.302;8.134;2023-12-20T05:43:13;11.05;;;2.15;;
47894;SDS011;33653;52.302;8.134;2023-12-20T05:45:55;11.50;;;2.53;;
47894;SDS011;33653;52.302;8.134;2023-12-20T05:48:32;2.53;;;2.20;;
47894;SDS011;33653;52.302;8.134;2023-12-20T05:51:07;4.05;;;2.55;;
47894;SDS011;33653;52.302;8.134;2023-12-20T05:53:50;2.85;;;1.55;;
47894;SDS011;33653;52.302;8.134;2023-12-20T05:56:21;4.25;;;2.10;;
47894;SDS011;33653;52.302;8.134;2023-12-20T06:04:03;7.60;;;2.40;;
47894;SDS011;33653;52.302;8.134;2023-12-20T06:06:34;14.63;;;2.85;;
47894;SDS011;33653;52.302;8.134;2023-12-20T06:09:11;6.68;;;2.20;;
47894;SDS011;33653;52.302;8.134;2023-12-20T06:14:11;3.85;;;2.50;;
47894;SDS011;33653;52.302;8.134;2023-12-20T06:16:39;5.50;;;2.35;;
47894;SDS011;33653;52.302;8.134;2023-12-20T06:32:33;4.55;;;1.70;;
47894;SDS011;33653;52.302;8.134;2023-12-20T06:35:02;7.03;;;2.58;;
47894;SDS011;33653;52.302;8.134;2023-12-20T06:40:55;5.93;;;2.53;;
47894;SDS011;33653;52.302;8.134;2023-12-20T06:49:36;2.53;;;1.45;;
47894;SDS011;33653;52.302;8.134;2023-12-20T06:52:06;7.78;;;3.47;;
47894;SDS011;33653;52.302;8.134;2023-12-20T06:54:44;15.48;;;3.38;;
47894;SDS011;33653;52.302;8.134;2023-12-20T06:57:13;3.17;;;2.00;;
47894;SDS011;33653;52.302;8.134;2023-12-20T06:59:43;2.85;;;1.90;;
47894;SDS011;33653;52.302;8.134;2023-12-20T07:02:11;9.50;;;3.55;;
47894;SDS011;33653;52.302;8.134;2023-12-20T07:04:45;22.85;;;3.03;;
47894;SDS011;33653;52.302;8.134;2023-12-20T07:07:13;3.90;;;2.20;;
47894;SDS011;33653;52.302;8.134;2023-12-20T07:15:36;9.20;;;2.15;;
47894;SDS011;33653;52.302;8.134;2023-12-20T07:18:25;4.63;;;1.80;;
47894;SDS011;33653;52.302;8.134;2023-12-20T07:23:51;3.40;;;1.58;;
47894;SDS011;33653;52.302;8.134;2023-12-20T07:29:12;11.63;;;2.63;;
47894;SDS011;33653;52.302;8.134;2023-12-20T07:31:40;4.60;;;2.42;;
47894;SDS011;33653;52.302;8.134;2023-12-20T07:34:12;11.02;;;2.90;;
47894;SDS011;33653;52.302;8.134;2023-12-20T07:36:40;12.38;;;2.35;;
47894;SDS011;33653;52.302;8.134;2023-12-20T07:39:17;3.95;;;2.00;;
47894;SDS011;33653;52.302;8.134;2023-12-20T07:44:39;17.35;;;1.85;;
47894;SDS011;33653;52.302;8.134;2023-12-20T07:47:19;4.90;;;2.05;;
47894;SDS011;33653;52.302;8.134;2023-12-20T07:49:57;6.53;;;2.20;;
47894;SDS011;33653;52.302;8.134;2023-12-20T07:58:40;3.22;;;1.55;;
47894;SDS011;33653;52.302;8.134;2023-12-20T08:01:19;5.82;;;2.55;;
47894;SDS011;33653;52.302;8.134;2023-12-20T08:03:49;6.03;;;2.45;;
47894;SDS011;33653;52.302;8.134;2023-12-20T08:06:27;11.32;;;2.38;;
47894;SDS011;33653;52.302;8.134;2023-12-20T08:12:07;5.18;;;2.03;;
47894;SDS011;33653;52.302;8.134;2023-12-20T08:14:44;7.30;;;1.95;;
47894;SDS011;33653;52.302;8.134;2023-12-20T08:17:18;5.90;;;2.00;;
47894;SDS011;33653;52.302;8.134;2023-12-20T08:26:36;2.30;;;1.60;;
47894;SDS011;33653;52.302;8.134;2023-12-20T08:29:14;2.25;;;1.60;;
47894;SDS011;33653;52.302;8.134;2023-12-20T08:34:41;5.45;;;1.58;;
47894;SDS011;33653;52.302;8.134;2023-12-20T08:37:13;9.82;;;1.70;;
47894;SDS011;33653;52.302;8.134;2023-12-20T08:39:56;2.33;;;1.63;;
47894;SDS011;33653;52.302;8.134;2023-12-20T08:42:26;2.85;;;2.10;;
47894;SDS011;33653;52.302;8.134;2023-12-20T08:45:00;9.45;;;1.90;;
47894;SDS011;33653;52.302;8.134;2023-12-20T08:47:33;2.28;;;1.73;;
47894;SDS011;33653;52.302;8.134;2023-12-20T08:50:05;3.17;;;1.55;;
47894;SDS011;33653;52.302;8.134;2023-12-20T08:52:46;3.42;;;2.00;;
47894;SDS011;33653;52.302;8.134;2023-12-20T08:55:15;2.80;;;1.47;;
47894;SDS011;33653;52.302;8.134;2023-12-20T09:00:31;4.88;;;1.70;;
47894;SDS011;33653;52.302;8.134;2023-12-20T09:05:47;7.68;;;1.77;;
47894;SDS011;33653;52.302;8.134;2023-12-20T09:08:33;3.28;;;1.75;;
47894;SDS011;33653;52.302;8.134;2023-12-20T09:16:34;7.93;;;1.92;;
47894;SDS011;33653;52.302;8.134;2023-12-20T09:28:09;5.53;;;1.42;;
47894;SDS011;33653;52.302;8.134;2023-12-20T09:30:44;5.95;;;2.00;;
47894;SDS011;33653;52.302;8.134;2023-12-20T09:36:15;11.00;;;2.25;;
47894;SDS011;33653;52.302;8.134;2023-12-20T09:38:43;4.53;;;1.95;;
47894;SDS011;33653;52.302;8.134;2023-12-20T09:41:17;1.45;;;1.10;;
47894;SDS011;33653;52.302;8.134;2023-12-20T09:44:02;7.63;;;1.75;;
47894;SDS011;33653;52.302;8.134;2023-12-20T09:46:46;7.72;;;2.40;;
47894;SDS011;33653;52.302;8.134;2023-12-20T09:58:51;3.65;;;2.78;;
47894;SDS011;33653;52.302;8.134;2023-12-20T10:01:22;7.47;;;1.90;;
47894;SDS011;33653;52.302;8.134;2023-12-20T10:03:54;6.95;;;2.53;;
47894;SDS011;33653;52.302;8.134;2023-12-20T10:06:28;3.28;;;1.40;;
47894;SDS011;33653;52.302;8.134;2023-12-20T10:12:16;7.95;;;2.20;;
47894;SDS011;33653;52.302;8.134;2023-12-20T10:14:47;8.43;;;1.80;;
47894;SDS011;33653;52.302;8.134;2023-12-20T10:17:16;4.75;;;2.20;;
47894;SDS011;33653;52.302;8.134;2023-12-20T10:19:50;18.55;;;2.30;;
47894;SDS011;33653;52.302;8.134;2023-12-20T10:22:21;4.65;;;2.22;;
47894;SDS011;33653;52.302;8.134;2023-12-20T10:24:57;9.05;;;2.40;;
47894;SDS011;33653;52.302;8.134;2023-12-20T10:27:25;11.23;;;2.50;;
47894;SDS011;33653;52.302;8.134;2023-12-20T10:29:59;4.95;;;2.60;;
47894;SDS011;33653;52.302;8.134;2023-12-20T10:32:37;6.15;;;2.13;;
47894;SDS011;33653;52.302;8.134;2023-12-20T10:35:14;13.38;;;4.00;;
47894;SDS011;33653;52.302;8.134;2023-12-20T10:40:57;9.93;;;1.80;;
47894;SDS011;33653;52.302;8.134;2023-12-20T10:43:31;2.22;;;1.70;;
47894;SDS011;33653;52.302;8.134;2023-12-20T10:46:02;4.43;;;2.15;;
47894;SDS011;33653;52.302;8.134;2023-12-20T10:48:31;10.73;;;2.58;;
47894;SDS011;33653;52.302;8.134;2023-12-20T10:51:03;3.38;;;1.60;;
47894;SDS011;33653;52.302;8.134;2023-12-20T10:53:33;9.10;;;1.75;;
47894;SDS011;33653;52.302;8.134;2023-12-20T10:56:06;4.03;;;1.67;;
47894;SDS011;33653;52.302;8.134;2023-12-20T11:18:10;1.38;;;1.25;;
47894;SDS011;33653;52.302;8.134;2023-12-20T11:20:51;9.35;;;1.33;;
47894;SDS011;33653;52.302;8.134;2023-12-20T11:26:30;5.05;;;1.50;;
47894;SDS011;33653;52.302;8.134;2023-12-20T11:32:44;4.13;;;1.90;;
47894;SDS011;33653;52.302;8.134;2023-12-20T11:35:18;14.63;;;1.55;;
47894;SDS011;33653;52.302;8.134;2023-12-20T11:37:47;2.90;;;1.50;;
47894;SDS011;33653;52.302;8.134;2023-12-20T11:40:17;8.23;;;1.75;;
47894;SDS011;33653;52.302;8.134;2023-12-20T11:43:01;3.42;;;1.30;;
47894;SDS011;33653;52.302;8.134;2023-12-20T11:45:32;5.28;;;1.90;;
47894;SDS011;33653;52.302;8.134;2023-12-20T11:48:02;6.88;;;2.45;;
47894;SDS011;33653;52.302;8.134;2023-12-20T11:53:34;3.10;;;1.63;;
47894;SDS011;33653;52.302;8.134;2023-12-20T11:56:06;2.00;;;1.60;;
47894;SDS011;33653;52.302;8.134;2023-12-20T11:58:36;8.23;;;2.08;;
47894;SDS011;33653;52.302;8.134;2023-12-20T12:01:22;3.80;;;1.25;;
47894;SDS011;33653;52.302;8.134;2023-12-20T12:04:13;2.85;;;1.35;;
47894;SDS011;33653;52.302;8.134;2023-12-20T12:06:45;12.23;;;1.23;;
47894;SDS011;33653;52.302;8.134;2023-12-20T12:12:58;4.93;;;1.25;;
47894;SDS011;33653;52.302;8.134;2023-12-20T12:22:14;1.08;;;1.00;;
47894;SDS011;33653;52.302;8.134;2023-12-20T12:27:55;1.38;;;0.85;;
47894;SDS011;33653;52.302;8.134;2023-12-20T12:30:29;2.85;;;1.17;;
47894;SDS011;33653;52.302;8.134;2023-12-20T12:33:16;1.15;;;0.93;;
47894;SDS011;33653;52.302;8.134;2023-12-20T12:35:50;2.50;;;1.23;;
47894;SDS011;33653;52.302;8.134;2023-12-20T12:38:21;2.05;;;1.10;;
47894;SDS011;33653;52.302;8.134;2023-12-20T12:40:51;1.02;;;0.85;;
47894;SDS011;33653;52.302;8.134;2023-12-20T12:43:26;3.22;;;0.90;;
47894;SDS011;33653;52.302;8.134;2023-12-20T12:45:55;2.97;;;1.42;;
47894;SDS011;33653;52.302;8.134;2023-12-20T12:48:23;2.67;;;1.30;;
47894;SDS011;33653;52.302;8.134;2023-12-20T12:50:52;2.75;;;1.00;;
47894;SDS011;33653;52.302;8.134;2023-12-20T12:53:24;1.08;;;0.90;;
47894;SDS011;33653;52.302;8.134;2023-12-20T12:55:54;1.20;;;1.10;;
47894;SDS011;33653;52.302;8.134;2023-12-20T13:01:28;7.40;;;1.52;;
47894;SDS011;33653;52.302;8.134;2023-12-20T13:04:06;4.10;;;1.17;;
47894;SDS011;33653;52.302;8.134;2023-12-20T13:09:17;3.97;;;1.55;;
47894;SDS011;33653;52.302;8.134;2023-12-20T13:15:31;9.90;;;3.90;;
47894;SDS011;33653;52.302;8.134;2023-12-20T13:18:00;5.28;;;2.17;;
47894;SDS011;33653;52.302;8.134;2023-12-20T13:20:28;3.35;;;1.42;;
47894;SDS011;33653;52.302;8.134;2023-12-20T13:22:57;4.35;;;1.90;;
47894;SDS011;33653;52.302;8.134;2023-12-20T13:25:29;8.55;;;2.10;;
47894;SDS011;33653;52.302;8.134;2023-12-20T13:28:01;6.35;;;2.42;;
47894;SDS011;33653;52.302;8.134;2023-12-20T13:30:35;13.43;;;3.20;;
47894;SDS011;33653;52.302;8.134;2023-12-20T13:36:10;5.07;;;2.22;;
47894;SDS011;33653;52.302;8.134;2023-12-20T13:38:39;3.38;;;1.15;;
47894;SDS011;33653;52.302;8.134;2023-12-20T13:41:07;2.17;;;1.13;;
47894;SDS011;33653;52.302;8.134;2023-12-20T13:43:39;2.47;;;1.23;;
47894;SDS011;33653;52.302;8.134;2023-12-20T13:46:14;10.95;;;6.35;;
47894;SDS011;33653;52.302;8.134;2023-12-20T13:48:43;2.38;;;2.05;;
47894;SDS011;33653;52.302;8.134;2023-12-20T13:51:12;2.45;;;2.00;;
47894;SDS011;33653;52.302;8.134;2023-12-20T13:53:44;1.67;;;1.10;;
47894;SDS011;33653;52.302;8.134;2023-12-20T13:56:17;3.22;;;1.20;;
47894;SDS011;33653;52.302;8.134;2023-12-20T14:01:45;1.90;;;1.35;;
47894;SDS011;33653;52.302;8.134;2023-12-20T14:07:06;3.28;;;1.80;;
47894;SDS011;33653;52.302;8.134;2023-12-20T14:09:56;1.20;;;1.10;;
47894;SDS011;33653;52.302;8.134;2023-12-20T14:15:39;5.05;;;1.00;;
47894;SDS011;33653;52.302;8.134;2023-12-20T14:21:14;3.08;;;1.30;;
47894;SDS011;33653;52.302;8.134;2023-12-20T14:29:17;1.15;;;1.00;;
47894;SDS011;33653;52.302;8.134;2023-12-20T14:32:12;4.53;;;1.20;;
47894;SDS011;33653;52.302;8.134;2023-12-20T14:37:47;1.30;;;1.20;;
47894;SDS011;33653;52.302;8.134;2023-12-20T14:40:22;2.57;;;1.10;;
47894;SDS011;33653;52.302;8.134;2023-12-20T14:46:02;1.50;;;1.15;;
47894;SDS011;33653;52.302;8.134;2023-12-20T14:48:42;4.25;;;1.67;;
47894;SDS011;33653;52.302;8.134;2023-12-20T14:54:14;3.20;;;1.08;;
47894;SDS011;33653;52.302;8.134;2023-12-20T14:59:37;6.47;;;1.50;;
47894;SDS011;33653;52.302;8.134;2023-12-20T15:08:29;8.13;;;1.30;;
47894;SDS011;33653;52.302;8.134;2023-12-20T15:10:58;7.18;;;1.55;;
47894;SDS011;33653;52.302;8.134;2023-12-20T15:16:45;3.00;;;1.42;;
47894;SDS011;33653;52.302;8.134;2023-12-20T15:19:20;0.98;;;0.98;;
47894;SDS011;33653;52.302;8.134;2023-12-20T15:22:04;1.98;;;1.77;;
47894;SDS011;33653;52.302;8.134;2023-12-20T15:24:37;5.78;;;1.85;;
47894;SDS011;33653;52.302;8.134;2023-12-20T15:27:16;3.25;;;2.10;;
47894;SDS011;33653;52.302;8.134;2023-12-20T15:32:51;4.40;;;1.63;;
47894;SDS011;33653;52.302;8.134;2023-12-20T15:38:16;1.67;;;1.30;;
47894;SDS011;33653;52.302;8.134;2023-12-20T15:40:48;4.10;;;1.95;;
47894;SDS011;33653;52.302;8.134;2023-12-20T15:43:22;1.95;;;1.38;;
47894;SDS011;33653;52.302;8.134;2023-12-20T15:45:56;4.95;;;1.20;;
47894;SDS011;33653;52.302;8.134;2023-12-20T15:48:38;2.35;;;1.33;;
47894;SDS011;33653;52.302;8.134;2023-12-20T16:08:14;5.47;;;1.45;;
47894;SDS011;33653;52.302;8.134;2023-12-20T16:21:37;2.80;;;1.85;;
47894;SDS011;33653;52.302;8.134;2023-12-20T16:24:07;6.18;;;1.67;;
47894;SDS011;33653;52.302;8.134;2023-12-20T16:26:41;14.25;;;2.20;;
47894;SDS011;33653;52.302;8.134;2023-12-20T16:29:21;6.80;;;2.38;;
47894;SDS011;33653;52.302;8.134;2023-12-20T16:31:57;4.72;;;1.58;;
47894;SDS011;33653;52.302;8.134;2023-12-20T16:34:29;2.65;;;1.50;;
47894;SDS011;33653;52.302;8.134;2023-12-20T16:37:14;6.32;;;2.45;;
47894;SDS011;33653;52.302;8.134;2023-12-20T16:39:43;3.97;;;2.05;;
47894;SDS011;33653;52.302;8.134;2023-12-20T16:42:12;5.22;;;1.95;;
47894;SDS011;33653;52.302;8.134;2023-12-20T16:47:24;5.70;;;1.38;;
47894;SDS011;33653;52.302;8.134;2023-12-20T16:49:52;6.38;;;2.30;;
47894;SDS011;33653;52.302;8.134;2023-12-20T16:52:23;7.43;;;2.13;;
47894;SDS011;33653;52.302;8.134;2023-12-20T16:55:08;4.07;;;1.60;;
47894;SDS011;33653;52.302;8.134;2023-12-20T16:57:38;2.63;;;1.58;;
47894;SDS011;33653;52.302;8.134;2023-12-20T17:14:44;7.47;;;1.55;;
47894;SDS011;33653;52.302;8.134;2023-12-20T17:25:32;9.40;;;2.03;;
47894;SDS011;33653;52.302;8.134;2023-12-20T17:28:06;5.80;;;2.03;;
47894;SDS011;33653;52.302;8.134;2023-12-20T17:30:38;7.88;;;2.38;;
47894;SDS011;33653;52.302;8.134;2023-12-20T17:36:58;6.13;;;3.22;;
47894;SDS011;33653;52.302;8.134;2023-12-20T17:39:32;8.50;;;2.58;;
47894;SDS011;33653;52.302;8.134;2023-12-20T17:46:02;9.75;;;2.95;;
47894;SDS011;33653;52.302;8.134;2023-12-20T17:48:31;11.45;;;4.72;;
47894;SDS011;33653;52.302;8.134;2023-12-20T17:51:10;10.00;;;2.88;;
47894;SDS011;33653;52.302;8.134;2023-12-20T17:53:41;6.63;;;2.00;;
47894;SDS011;33653;52.302;8.134;2023-12-20T18:03:14;5.90;;;2.83;;
47894;SDS011;33653;52.302;8.134;2023-12-20T18:08:57;13.13;;;3.75;;
47894;SDS011;33653;52.302;8.134;2023-12-20T18:11:26;10.13;;;2.65;;
47894;SDS011;33653;52.302;8.134;2023-12-20T18:16:36;4.18;;;3.45;;
47894;SDS011;33653;52.302;8.134;2023-12-20T18:19:10;5.60;;;3.38;;
47894;SDS011;33653;52.302;8.134;2023-12-20T18:24:40;13.40;;;3.70;;
47894;SDS011;33653;52.302;8.134;2023-12-20T18:27:10;11.52;;;4.03;;
47894;SDS011;33653;52.302;8.134;2023-12-20T18:29:53;13.80;;;4.90;;
47894;SDS011;33653;52.302;8.134;2023-12-20T18:32:35;8.20;;;3.75;;
47894;SDS011;33653;52.302;8.134;2023-12-20T18:35:04;8.93;;;3.50;;
47894;SDS011;33653;52.302;8.134;2023-12-20T18:38:13;8.32;;;4.32;;
47894;SDS011;33653;52.302;8.134;2023-12-20T18:40:43;8.02;;;4.53;;
47894;SDS011;33653;52.302;8.134;2023-12-20T18:43:14;8.98;;;4.45;;
47894;SDS011;33653;52.302;8.134;2023-12-20T18:46:04;8.52;;;5.00;;
47894;SDS011;33653;52.302;8.134;2023-12-20T18:48:49;7.68;;;5.13;;
47894;SDS011;33653;52.302;8.134;2023-12-20T18:51:19;8.57;;;4.72;;
47894;SDS011;33653;52.302;8.134;2023-12-20T18:53:47;10.63;;;3.90;;
47894;SDS011;33653;52.302;8.134;2023-12-20T18:56:24;7.97;;;4.28;;
47894;SDS011;33653;52.302;8.134;2023-12-20T19:01:54;12.85;;;5.30;;
47894;SDS011;33653;52.302;8.134;2023-12-20T19:04:24;6.78;;;4.75;;
47894;SDS011;33653;52.302;8.134;2023-12-20T19:06:59;11.60;;;4.55;;
47894;SDS011;33653;52.302;8.134;2023-12-20T19:09:33;10.85;;;5.10;;
47894;SDS011;33653;52.302;8.134;2023-12-20T19:12:07;10.38;;;5.30;;
47894;SDS011;33653;52.302;8.134;2023-12-20T19:14:38;9.38;;;5.28;;
47894;SDS011;33653;52.302;8.134;2023-12-20T19:17:15;18.45;;;6.00;;
47894;SDS011;33653;52.302;8.134;2023-12-20T19:19:43;14.20;;;6.03;;
47894;SDS011;33653;52.302;8.134;2023-12-20T19:27:40;10.32;;;5.47;;
47894;SDS011;33653;52.302;8.134;2023-12-20T19:30:11;9.80;;;5.00;;
47894;SDS011;33653;52.302;8.134;2023-12-20T19:32:41;8.75;;;4.88;;
47894;SDS011;33653;52.302;8.134;2023-12-20T19:35:09;12.63;;;5.65;;
47894;SDS011;33653;52.302;8.134;2023-12-20T19:37:38;5.30;;;3.65;;
47894;SDS011;33653;52.302;8.134;2023-12-20T19:40:11;5.40;;;3.25;;
47894;SDS011;33653;52.302;8.134;2023-12-20T19:42:44;10.20;;;4.85;;
47894;SDS011;33653;52.302;8.134;2023-12-20T19:45:12;8.05;;;4.85;;
47894;SDS011;33653;52.302;8.134;2023-12-20T19:47:50;13.32;;;5.65;;
47894;SDS011;33653;52.302;8.134;2023-12-20T19:50:21;8.45;;;3.85;;
47894;SDS011;33653;52.302;8.134;2023-12-20T19:52:49;8.32;;;4.28;;
47894;SDS011;33653;52.302;8.134;2023-12-20T19:55:18;12.25;;;5.05;;
47894;SDS011;33653;52.302;8.134;2023-12-20T19:57:47;6.32;;;3.75;;
47894;SDS011;33653;52.302;8.134;2023-12-20T20:00:19;7.53;;;4.47;;
47894;SDS011;33653;52.302;8.134;2023-12-20T20:02:48;9.35;;;4.28;;
47894;SDS011;33653;52.302;8.134;2023-12-20T20:05:16;6.97;;;4.20;;
47894;SDS011;33653;52.302;8.134;2023-12-20T20:07:45;8.23;;;5.03;;
47894;SDS011;33653;52.302;8.134;2023-12-20T20:10:13;11.80;;;4.45;;
47894;SDS011;33653;52.302;8.134;2023-12-20T20:12:47;5.18;;;3.38;;
47894;SDS011;33653;52.302;8.134;2023-12-20T20:15:16;8.90;;;4.43;;
47894;SDS011;33653;52.302;8.134;2023-12-20T20:17:44;6.03;;;3.72;;
47894;SDS011;33653;52.302;8.134;2023-12-20T20:20:13;7.32;;;3.50;;
47894;SDS011;33653;52.302;8.134;2023-12-20T20:22:41;6.60;;;4.20;;
47894;SDS011;33653;52.302;8.134;2023-12-20T20:25:11;6.18;;;3.88;;
47894;SDS011;33653;52.302;8.134;2023-12-20T20:27:40;6.75;;;3.92;;
47894;SDS011;33653;52.302;8.134;2023-12-20T20:30:09;6.50;;;3.80;;
47894;SDS011;33653;52.302;8.134;2023-12-20T20:32:38;5.70;;;3.58;;
47894;SDS011;33653;52.302;8.134;2023-12-20T20:35:08;7.90;;;3.80;;
47894;SDS011;33653;52.302;8.134;2023-12-20T20:37:37;4.43;;;3.17;;
47894;SDS011;33653;52.302;8.134;2023-12-20T20:40:06;5.53;;;2.65;;
47894;SDS011;33653;52.302;8.134;2023-12-20T20:42:35;5.72;;;3.38;;
47894;SDS011;33653;52.302;8.134;2023-12-20T20:45:04;6.15;;;4.28;;
47894;SDS011;33653;52.302;8.134;2023-12-20T20:47:34;3.28;;;2.15;;
47894;SDS011;33653;52.302;8.134;2023-12-20T20:50:02;5.90;;;3.47;;
47894;SDS011;33653;52.302;8.134;2023-12-20T20:52:31;3.92;;;2.55;;
47894;SDS011;33653;52.302;8.134;2023-12-20T20:55:00;3.63;;;2.25;;
47894;SDS011;33653;52.302;8.134;2023-12-20T20:57:30;6.13;;;3.25;;
47894;SDS011;33653;52.302;8.134;2023-12-20T20:59:58;5.43;;;3.17;;
47894;SDS011;33653;52.302;8.134;2023-12-20T21:02:27;4.78;;;3.00;;
47894;SDS011;33653;52.302;8.134;2023-12-20T21:04:59;5.90;;;3.25;;
47894;SDS011;33653;52.302;8.134;2023-12-20T21:10:00;5.78;;;2.67;;
47894;SDS011;33653;52.302;8.134;2023-12-20T21:12:36;4.22;;;2.58;;